Time;durP1;ratioP1;P1;durP2;ratioP2;P2;SDS_P1;SDS_P2;PMS_P1;PMS_P2;Temp;Humidity;BMP_temperature;BMP_pressure;BME280_temperature;BME280_humidity;BME280_pressure;Samples;Min_cycle;Max_cycle;Signal;HPM_P1;HPM_P2
2023/01/18 00:00:36;;;;;;;11.18;6.32;;;-1.20;99.90;;;;;;5004992;28;20124;-49
2023/01/18 00:03:03;;;;;;;7.47;6.03;;;-1.20;99.90;;;;;;5006178;28;20423;-49
2023/01/18 00:05:29;;;;;;;9.63;6.25;;;-1.20;99.90;;;;;;5004985;28;20096;-52
2023/01/18 00:07:55;;;;;;;11.85;6.30;;;-1.20;99.90;;;;;;5008646;28;20117;-52
2023/01/18 00:10:22;;;;;;;9.40;6.10;;;-1.20;99.90;;;;;;5006023;28;20117;-49
2023/01/18 00:12:48;;;;;;;10.77;6.95;;;-1.20;99.90;;;;;;5003640;28;20125;-48
2023/01/18 00:15:14;;;;;;;8.05;6.30;;;-1.20;99.90;;;;;;5007170;28;20129;-51
2023/01/18 00:17:52;;;;;;;10.00;6.57;;;-1.30;99.90;;;;;;5008884;28;20121;-49
2023/01/18 00:20:23;;;;;;;7.82;6.60;;;-1.30;99.90;;;;;;5002511;28;20034;-50
2023/01/18 00:22:50;;;;;;;8.93;5.95;;;-1.30;99.90;;;;;;5006992;28;20107;-51
2023/01/18 00:25:17;;;;;;;9.23;6.30;;;-1.30;99.90;;;;;;5007983;28;20042;-48
2023/01/18 00:27:51;;;;;;;9.38;6.68;;;-1.30;99.90;;;;;;4998540;28;20053;-49
2023/01/18 00:30:19;;;;;;;9.90;6.53;;;-1.30;99.90;;;;;;5010491;28;20046;-48
2023/01/18 00:32:45;;;;;;;;;;;-1.30;99.90;;;;;;5006355;28;20038;-48
2023/01/18 00:35:11;;;;;;;11.82;6.78;;;-1.30;99.90;;;;;;5003925;28;20406;-51
2023/01/18 00:37:37;;;;;;;8.63;6.55;;;-1.30;99.90;;;;;;5008442;28;20053;-49
2023/01/18 00:40:05;;;;;;;10.32;6.32;;;-1.30;99.90;;;;;;5005748;28;20051;-49
2023/01/18 00:45:15;;;;;;;8.70;6.78;;;-1.20;99.90;;;;;;5006417;28;21511;-49
2023/01/18 00:47:40;;;;;;;9.20;7.05;;;-1.20;99.90;;;;;;5016788;28;20408;-48
2023/01/18 00:50:07;;;;;;;10.50;6.88;;;-1.20;99.90;;;;;;5005191;28;20041;-48
2023/01/18 00:52:33;;;;;;;11.52;7.82;;;-1.20;99.90;;;;;;5004542;28;20048;-49
2023/01/18 00:55:00;;;;;;;10.32;7.30;;;-1.20;99.90;;;;;;4999323;28;20052;-49
2023/01/18 00:57:26;;;;;;;8.48;6.63;;;-1.20;99.90;;;;;;4999096;28;20136;-48
2023/01/18 00:59:51;;;;;;;11.77;7.63;;;-1.20;99.90;;;;;;5003334;28;20041;-48
2023/01/18 01:02:17;;;;;;;10.95;7.10;;;-1.30;99.90;;;;;;4993711;28;20100;-50
2023/01/18 01:07:27;;;;;;;10.70;7.80;;;-1.30;99.90;;;;;;4999646;28;20046;-48
2023/01/18 01:09:53;;;;;;;10.98;7.57;;;-1.40;99.90;;;;;;5001216;28;20052;-48
2023/01/18 01:26:09;;;;;;;8.70;7.40;;;-1.40;99.90;;;;;;5000136;28;20054;-48
2023/01/18 01:28:48;;;;;;;12.93;7.60;;;-1.40;99.90;;;;;;5000853;28;20404;-49
2023/01/18 01:31:15;;;;;;;11.90;7.40;;;-1.40;99.90;;;;;;5001378;28;20066;-53
2023/01/18 01:33:43;;;;;;;11.73;7.53;;;-1.40;99.90;;;;;;5003336;28;20038;-52
2023/01/18 01:36:12;;;;;;;10.32;7.57;;;-1.40;99.90;;;;;;4999213;28;20038;-50
2023/01/18 01:38:40;;;;;;;10.65;7.47;;;-1.40;99.90;;;;;;5000070;28;20072;-48
2023/01/18 01:41:13;;;;;;;13.32;7.97;;;-1.50;99.90;;;;;;4999744;28;20557;-50
2023/01/18 01:43:45;;;;;;;12.32;8.20;;;-1.50;99.90;;;;;;4999077;28;20120;-49
2023/01/18 01:46:26;;;;;;;8.77;7.32;;;-1.50;99.90;;;;;;4999149;28;20046;-49
2023/01/18 01:49:01;;;;;;;8.85;7.05;;;-1.60;99.90;;;;;;4998636;28;20065;-50
2023/01/18 01:51:27;;;;;;;10.15;7.03;;;-1.60;99.90;;;;;;4998102;28;20037;-48
2023/01/18 01:53:58;;;;;;;8.98;7.82;;;-1.60;99.90;;;;;;5002051;28;20052;-48
2023/01/18 01:56:24;;;;;;;10.63;8.23;;;-1.60;99.90;;;;;;4999517;28;20063;-48
2023/01/18 01:58:54;;;;;;;9.43;7.20;;;-1.60;99.90;;;;;;5000842;28;20041;-48
2023/01/18 02:01:19;;;;;;;9.52;6.90;;;-1.60;99.90;;;;;;5007290;28;20485;-48
2023/01/18 02:03:45;;;;;;;9.98;7.40;;;-1.60;99.90;;;;;;5004640;28;20045;-49
2023/01/18 02:06:30;;;;;;;10.43;7.45;;;-1.50;99.90;;;;;;5007273;28;20129;-49
2023/01/18 02:09:23;;;;;;;11.43;7.55;;;-1.50;99.90;;;;;;5005329;28;20105;-49
2023/01/18 02:11:54;;;;;;;13.93;7.30;;;-1.40;99.90;;;;;;5006418;28;20061;-48
2023/01/18 02:14:22;;;;;;;11.68;8.20;;;-1.40;99.90;;;;;;5004540;28;20088;-49
2023/01/18 02:17:03;;;;;;;12.18;8.02;;;-1.40;99.90;;;;;;5003014;28;20080;-50
2023/01/18 02:19:38;;;;;;;10.75;8.38;;;-1.40;99.90;;;;;;5002945;28;20056;-50
2023/01/18 02:22:17;;;;;;;12.18;8.23;;;-1.40;99.90;;;;;;5006570;28;20500;-51
2023/01/18 02:25:21;;;;;;;9.82;7.70;;;-1.40;99.90;;;;;;5009699;28;20042;-52
2023/01/18 02:28:12;;;;;;;10.85;8.40;;;-1.50;99.90;;;;;;5015457;28;20046;-51
2023/01/18 02:30:53;;;;;;;9.57;7.68;;;-1.50;99.90;;;;;;5010781;28;20048;-49
2023/01/18 02:33:32;;;;;;;10.43;7.97;;;-1.50;99.90;;;;;;5008026;28;20038;-50
2023/01/18 02:36:00;;;;;;;11.68;8.30;;;-1.50;99.90;;;;;;5008869;28;20367;-52
2023/01/18 02:38:40;;;;;;;11.68;7.82;;;-1.50;99.90;;;;;;5013542;28;20042;-49
2023/01/18 02:41:08;;;;;;;11.82;8.30;;;-1.60;99.90;;;;;;5009793;28;20050;-49
2023/01/18 02:46:41;;;;;;;10.85;8.45;;;-1.60;99.90;;;;;;4971398;28;20082;-50
2023/01/18 02:49:10;;;;;;;10.85;8.30;;;-1.50;99.90;;;;;;4966599;28;20054;-52
2023/01/18 02:51:37;;;;;;;12.95;8.38;;;-1.60;99.90;;;;;;4966858;28;20046;-53
2023/01/18 02:54:07;;;;;;;11.15;8.60;;;-1.60;99.90;;;;;;4963945;28;20592;-49
2023/01/18 02:56:41;;;;;;;13.00;9.48;;;-1.60;99.90;;;;;;4963534;28;20042;-51
2023/01/18 02:59:34;;;;;;;11.10;8.65;;;-1.60;99.90;;;;;;4962269;28;20157;-53
2023/01/18 03:02:05;;;;;;;12.75;9.70;;;-1.60;99.90;;;;;;4961854;28;20043;-48
2023/01/18 03:04:34;;;;;;;14.00;9.43;;;-1.70;99.90;;;;;;4962835;28;20139;-48
2023/01/18 03:07:08;;;;;;;14.10;8.90;;;-1.70;99.90;;;;;;4961533;28;20040;-49
2023/01/18 03:09:33;;;;;;;10.73;8.93;;;-1.70;99.90;;;;;;4964624;28;20035;-49
2023/01/18 03:12:07;;;;;;;12.77;9.07;;;-1.70;99.90;;;;;;4946863;28;20055;-49
2023/01/18 03:14:57;;;;;;;13.45;9.70;;;-1.70;99.90;;;;;;4965733;28;20054;-49
2023/01/18 03:17:36;;;;;;;12.20;9.73;;;-1.70;99.90;;;;;;4982315;28;20049;-50
2023/01/18 03:20:10;;;;;;;14.68;10.35;;;-1.60;99.90;;;;;;5000631;28;20072;-49
2023/01/18 03:25:44;;;;;;;13.48;9.68;;;-1.70;99.90;;;;;;5001520;28;20571;-50
2023/01/18 03:34:20;;;;;;;12.18;10.02;;;-1.80;99.90;;;;;;5003809;28;20449;-49
2023/01/18 03:36:48;;;;;;;15.57;10.23;;;-1.80;99.90;;;;;;5002793;28;20053;-53
2023/01/18 03:39:23;;;;;;;16.90;10.05;;;-1.80;99.90;;;;;;5002415;28;20057;-49
2023/01/18 03:41:53;;;;;;;12.75;10.23;;;-1.80;99.90;;;;;;5000483;28;20124;-51
2023/01/18 03:44:28;;;;;;;13.30;9.40;;;-1.70;99.90;;;;;;4997676;28;20053;-51
2023/01/18 03:46:56;;;;;;;11.57;9.88;;;-1.70;99.90;;;;;;5004114;28;20038;-52
2023/01/18 03:49:23;;;;;;;16.73;10.88;;;-1.70;99.90;;;;;;5000077;28;20045;-52
2023/01/18 03:51:52;;;;;;;12.02;10.65;;;-1.70;99.90;;;;;;5000601;28;20046;-51
2023/01/18 03:54:37;;;;;;;13.93;10.50;;;-1.70;99.90;;;;;;5002503;28;20061;-49
2023/01/18 03:57:14;;;;;;;12.55;10.43;;;-1.60;99.90;;;;;;5000743;28;20129;-51
2023/01/18 03:59:40;;;;;;;13.23;10.70;;;-1.60;99.90;;;;;;5001059;28;20459;-50
2023/01/18 04:02:07;;;;;;;17.15;11.70;;;-1.70;99.90;;;;;;4999526;28;20099;-52
2023/01/18 04:04:33;;;;;;;17.20;10.57;;;-1.70;99.90;;;;;;5000374;28;20054;-52
2023/01/18 04:06:59;;;;;;;12.70;10.52;;;-1.70;99.90;;;;;;5000406;28;20049;-51
2023/01/18 04:09:25;;;;;;;13.30;10.55;;;-1.70;99.90;;;;;;5017195;28;20049;-51
2023/01/18 04:11:51;;;;;;;15.70;10.68;;;-1.70;99.90;;;;;;5001743;28;20531;-50
2023/01/18 04:14:17;;;;;;;15.98;10.75;;;-1.80;99.90;;;;;;4999250;28;20042;-48
2023/01/18 04:16:42;;;;;;;15.95;11.68;;;-1.80;99.90;;;;;;5005006;28;21288;-52
2023/01/18 04:19:09;;;;;;;14.75;11.20;;;-1.70;99.90;;;;;;5005812;28;20034;-49
2023/01/18 04:21:36;;;;;;;13.30;10.45;;;-1.80;99.90;;;;;;5004082;28;20070;-49
2023/01/18 04:24:01;;;;;;;15.48;11.50;;;-1.70;99.90;;;;;;5000934;28;20054;-50
2023/01/18 04:26:28;;;;;;;18.58;11.02;;;-1.80;99.90;;;;;;5011207;28;20041;-49
2023/01/18 04:28:54;;;;;;;19.02;10.93;;;-1.80;99.90;;;;;;5012204;28;20042;-51
2023/01/18 04:31:20;;;;;;;19.42;11.10;;;-1.70;99.90;;;;;;5005442;28;20124;-53
2023/01/18 04:33:50;;;;;;;14.50;10.48;;;-1.70;99.90;;;;;;5004768;28;20167;-51
2023/01/18 04:36:16;;;;;;;14.23;10.95;;;-1.60;99.90;;;;;;5008445;28;20100;-52
2023/01/18 04:38:42;;;;;;;14.55;11.02;;;-1.70;99.90;;;;;;5009121;28;20050;-50
2023/01/18 04:41:07;;;;;;;15.75;11.05;;;-1.70;99.90;;;;;;5006528;28;20132;-50
2023/01/18 04:43:33;;;;;;;13.77;11.23;;;-1.70;99.90;;;;;;5005601;28;20393;-49
2023/01/18 04:45:59;;;;;;;16.85;11.70;;;-1.60;99.90;;;;;;4986348;28;20052;-51
2023/01/18 04:48:25;;;;;;;15.13;11.27;;;-1.70;99.90;;;;;;5005979;28;20162;-50
2023/01/18 04:50:51;;;;;;;18.38;10.88;;;-1.60;99.90;;;;;;5004615;28;20044;-49
2023/01/18 04:53:17;;;;;;;13.02;9.95;;;-1.70;99.90;;;;;;5003438;28;20037;-48
2023/01/18 04:55:43;;;;;;;14.23;10.90;;;-1.60;99.90;;;;;;4999424;28;20079;-50
2023/01/18 04:58:09;;;;;;;15.45;10.65;;;-1.70;99.90;;;;;;4998814;28;20042;-51
2023/01/18 05:00:38;;;;;;;15.82;11.02;;;-1.60;99.90;;;;;;5000170;28;20046;-53
2023/01/18 05:03:05;;;;;;;15.18;10.50;;;-1.70;99.90;;;;;;5001831;28;20084;-50
2023/01/18 05:05:31;;;;;;;12.52;10.02;;;-1.60;99.90;;;;;;5005010;28;20049;-52
2023/01/18 05:07:57;;;;;;;14.50;10.75;;;-1.70;99.90;;;;;;4999499;28;20049;-51
2023/01/18 05:10:22;;;;;;;12.95;10.15;;;-1.70;99.90;;;;;;5000471;28;20442;-51
2023/01/18 05:12:48;;;;;;;14.82;10.25;;;-1.70;99.90;;;;;;5001771;28;20033;-50
2023/01/18 05:15:13;;;;;;;16.33;11.55;;;-1.70;99.90;;;;;;5002979;28;20030;-53
2023/01/18 05:17:39;;;;;;;14.07;11.35;;;-1.70;99.90;;;;;;4999173;28;20468;-51
2023/01/18 05:20:06;;;;;;;15.88;10.30;;;-1.80;99.90;;;;;;5002407;28;20452;-50
2023/01/18 05:22:32;;;;;;;14.25;10.63;;;-1.80;99.90;;;;;;5001129;28;20034;-50
2023/01/18 05:24:58;;;;;;;14.05;11.07;;;-1.80;99.90;;;;;;4998309;28;20045;-51
2023/01/18 05:27:24;;;;;;;12.48;9.77;;;-1.80;99.90;;;;;;5001672;28;20042;-51
2023/01/18 05:29:50;;;;;;;13.38;10.10;;;-1.80;99.90;;;;;;5001783;28;20042;-50
2023/01/18 05:32:16;;;;;;;13.10;9.93;;;-1.80;99.90;;;;;;5004296;28;20397;-50
2023/01/18 05:34:42;;;;;;;14.20;10.35;;;-1.80;99.90;;;;;;5003082;28;20046;-50
2023/01/18 05:37:09;;;;;;;16.63;10.43;;;-1.80;99.90;;;;;;5001544;28;20104;-50
2023/01/18 05:39:34;;;;;;;13.75;10.20;;;-1.80;99.90;;;;;;4998989;28;20034;-50
2023/01/18 05:42:00;;;;;;;14.38;10.13;;;-1.80;99.90;;;;;;5001950;28;20404;-54
2023/01/18 05:44:26;;;;;;;14.82;10.73;;;-1.80;99.90;;;;;;5003560;28;20038;-50
2023/01/18 05:46:52;;;;;;;14.88;10.77;;;-1.80;99.90;;;;;;5002985;28;20546;-49
2023/01/18 05:49:17;;;;;;;14.20;10.95;;;-1.80;99.90;;;;;;5000751;28;20080;-51
2023/01/18 05:51:43;;;;;;;12.95;10.60;;;-1.80;99.90;;;;;;4999425;28;20439;-49
2023/01/18 05:54:08;;;;;;;17.73;12.05;;;-1.80;99.90;;;;;;5000504;28;20045;-49
2023/01/18 05:56:34;;;;;;;16.48;11.80;;;-1.80;99.90;;;;;;5001593;28;20069;-50
2023/01/18 05:59:00;;;;;;;17.35;11.63;;;-1.80;99.90;;;;;;4999941;28;20400;-51
2023/01/18 06:01:26;;;;;;;16.48;12.38;;;-1.80;99.90;;;;;;4999739;28;20074;-50
2023/01/18 06:03:52;;;;;;;18.77;12.27;;;-1.90;99.90;;;;;;4999576;28;20038;-50
2023/01/18 06:06:17;;;;;;;16.88;11.90;;;-1.90;99.90;;;;;;4999620;28;20046;-49
2023/01/18 06:08:43;;;;;;;16.83;11.35;;;-1.90;99.90;;;;;;4999805;28;20046;-52
2023/01/18 06:11:09;;;;;;;15.43;11.90;;;-1.80;99.90;;;;;;4998931;28;20042;-52
2023/01/18 06:13:35;;;;;;;16.17;12.07;;;-1.80;99.90;;;;;;5016711;28;20038;-49
2023/01/18 06:16:01;;;;;;;18.95;12.25;;;-1.80;99.90;;;;;;5002549;28;20066;-50
2023/01/18 06:18:30;;;;;;;17.35;13.57;;;-1.80;99.90;;;;;;5000336;28;20381;-50
2023/01/18 06:20:56;;;;;;;19.35;13.32;;;-1.80;99.90;;;;;;5003113;28;20046;-52
2023/01/18 06:23:23;;;;;;;19.67;12.95;;;-1.80;99.90;;;;;;4997436;28;20046;-50
2023/01/18 06:25:49;;;;;;;16.00;13.25;;;-1.80;99.90;;;;;;5011291;28;20041;-50
2023/01/18 06:28:15;;;;;;;21.52;13.57;;;-1.80;99.90;;;;;;5008378;28;20049;-52
2023/01/18 06:30:41;;;;;;;18.05;13.02;;;-1.90;99.90;;;;;;5011340;28;20045;-50
2023/01/18 06:33:08;;;;;;;16.42;13.43;;;-1.90;99.90;;;;;;5004152;28;20049;-50
2023/01/18 06:35:37;;;;;;;17.15;14.38;;;-1.80;99.90;;;;;;5005343;28;20125;-51
2023/01/18 06:38:03;;;;;;;21.25;13.88;;;-1.80;99.90;;;;;;5007456;28;20169;-49
2023/01/18 06:40:29;;;;;;;18.25;13.07;;;-1.80;99.90;;;;;;5007845;28;20412;-50
2023/01/18 06:42:56;;;;;;;19.23;13.70;;;-1.70;99.90;;;;;;5005141;28;20038;-50
2023/01/18 06:45:24;;;;;;;17.45;14.30;;;-1.70;99.90;;;;;;5007490;28;20182;-51
2023/01/18 06:47:50;;;;;;;20.73;13.93;;;-1.80;99.90;;;;;;5009706;28;20049;-54
2023/01/18 06:50:16;;;;;;;18.40;14.00;;;-1.70;99.90;;;;;;5009075;28;20132;-49
2023/01/18 06:52:42;;;;;;;18.95;14.27;;;-1.70;99.90;;;;;;5006772;28;20140;-51
2023/01/18 06:55:09;;;;;;;20.13;15.60;;;-1.70;99.90;;;;;;5006183;28;20116;-53
2023/01/18 06:57:35;;;;;;;20.08;14.68;;;-1.80;99.90;;;;;;5006547;28;20034;-50
2023/01/18 07:00:04;;;;;;;19.88;14.88;;;-1.80;99.90;;;;;;5003121;28;20041;-51
2023/01/18 07:02:31;;;;;;;18.92;14.88;;;-1.70;99.90;;;;;;5001290;28;20042;-50
2023/01/18 07:04:56;;;;;;;22.00;14.98;;;-1.80;99.90;;;;;;5005383;28;20046;-53
2023/01/18 07:07:22;;;;;;;20.67;15.50;;;-1.80;99.90;;;;;;5002338;28;20125;-53
2023/01/18 07:09:48;;;;;;;22.02;16.35;;;-1.80;99.90;;;;;;5002554;28;20045;-50
2023/01/18 07:12:13;;;;;;;20.13;15.40;;;-1.70;99.90;;;;;;5003497;28;20559;-54
2023/01/18 07:14:39;;;;;;;19.13;13.57;;;-1.70;99.90;;;;;;5006121;28;20121;-50
2023/01/18 07:17:04;;;;;;;20.30;14.55;;;-1.70;99.90;;;;;;5003915;28;20481;-48
2023/01/18 07:19:30;;;;;;;25.38;16.75;;;-1.70;99.90;;;;;;5006067;28;20038;-50
2023/01/18 07:21:57;;;;;;;19.10;15.93;;;-1.70;99.90;;;;;;5002143;28;20038;-50
2023/01/18 07:24:23;;;;;;;26.05;16.63;;;-1.70;99.90;;;;;;5001026;28;20350;-50
2023/01/18 07:26:48;;;;;;;25.77;15.65;;;-1.70;99.90;;;;;;5002213;28;20046;-50
2023/01/18 07:29:14;;;;;;;22.80;16.80;;;-1.70;99.90;;;;;;5005988;28;20377;-51
2023/01/18 07:31:39;;;;;;;25.05;16.33;;;-1.80;99.90;;;;;;5001608;28;20511;-50
2023/01/18 07:34:06;;;;;;;22.58;16.80;;;-1.80;99.90;;;;;;5004761;28;20121;-52
2023/01/18 07:36:31;;;;;;;22.30;15.48;;;-1.80;99.90;;;;;;5003765;28;20050;-49
2023/01/18 07:38:57;;;;;;;20.17;16.27;;;-1.80;99.90;;;;;;5001442;28;20041;-50
2023/01/18 07:41:23;;;;;;;23.70;15.70;;;-1.70;99.90;;;;;;5003393;28;20350;-51
2023/01/18 07:43:48;;;;;;;24.65;16.65;;;-1.70;99.90;;;;;;5003803;28;20477;-50
2023/01/18 07:46:19;;;;;;;20.40;15.75;;;-1.70;99.90;;;;;;5000978;28;20081;-49
2023/01/18 07:48:45;;;;;;;22.42;15.98;;;-1.70;99.90;;;;;;4998641;28;20026;-50
2023/01/18 07:51:11;;;;;;;20.33;15.10;;;-1.70;99.90;;;;;;5003484;28;20038;-50
2023/01/18 07:53:38;;;;;;;24.38;16.48;;;-1.70;99.90;;;;;;5001701;28;20447;-54
2023/01/18 07:56:06;;;;;;;24.23;16.45;;;-1.70;99.90;;;;;;5001058;28;20069;-51
2023/01/18 07:58:34;;;;;;;21.27;15.95;;;-1.70;99.90;;;;;;5000661;28;20037;-49
2023/01/18 08:01:05;;;;;;;22.30;16.60;;;-1.70;99.90;;;;;;4996614;28;20041;-53
2023/01/18 08:03:31;;;;;;;24.23;15.82;;;-1.60;99.90;;;;;;4997797;28;20058;-52
2023/01/18 08:05:58;;;;;;;20.25;15.57;;;-1.60;99.90;;;;;;5001374;28;20050;-49
2023/01/18 08:08:24;;;;;;;20.83;15.75;;;-1.70;99.90;;;;;;5002956;28;20068;-53
2023/01/18 08:10:55;;;;;;;27.33;15.68;;;-1.70;99.90;;;;;;5008361;28;20120;-49
2023/01/18 08:13:21;;;;;;;25.08;15.77;;;-1.60;99.90;;;;;;5006375;28;20404;-51
2023/01/18 08:15:46;;;;;;;21.00;15.60;;;-1.60;99.90;;;;;;5006000;28;20061;-51
2023/01/18 08:18:13;;;;;;;21.05;14.68;;;-1.60;99.90;;;;;;5004776;28;20046;-50
2023/01/18 08:20:41;;;;;;;20.85;16.25;;;-1.60;99.90;;;;;;5004442;28;20041;-51
2023/01/18 08:23:07;;;;;;;19.92;15.00;;;-1.50;99.90;;;;;;5004670;28;20042;-50
2023/01/18 08:25:32;;;;;;;18.52;14.50;;;-1.50;99.90;;;;;;5005239;28;20050;-52
2023/01/18 08:27:59;;;;;;;19.15;14.43;;;-1.40;99.90;;;;;;5006997;28;20089;-48
2023/01/18 08:30:27;;;;;;;21.77;15.60;;;-1.40;99.90;;;;;;5006705;28;20480;-49
2023/01/18 08:32:54;;;;;;;18.87;15.63;;;-1.40;99.90;;;;;;5004069;28;20034;-49
2023/01/18 08:35:20;;;;;;;20.45;15.00;;;-1.40;99.90;;;;;;5010931;28;20041;-51
2023/01/18 08:37:46;;;;;;;20.02;14.88;;;-1.40;99.90;;;;;;5007435;28;20045;-48
2023/01/18 08:40:12;;;;;;;20.70;15.00;;;-1.30;99.90;;;;;;5002138;28;20038;-50
2023/01/18 08:42:37;;;;;;;21.05;14.73;;;-1.30;99.90;;;;;;5005426;28;20078;-53
2023/01/18 08:45:03;;;;;;;18.10;14.23;;;-1.30;99.90;;;;;;5005688;28;20107;-48
2023/01/18 08:47:29;;;;;;;21.05;13.63;;;-1.20;99.90;;;;;;5000787;28;20046;-49
2023/01/18 08:49:55;;;;;;;18.70;14.65;;;-1.10;99.90;;;;;;5005236;28;20608;-49
2023/01/18 08:52:21;;;;;;;17.48;14.23;;;-1.10;99.90;;;;;;4998743;28;20204;-50
2023/01/18 08:54:46;;;;;;;15.68;13.60;;;-1.00;99.90;;;;;;4998682;28;20042;-51
2023/01/18 08:57:12;;;;;;;19.05;14.23;;;-1.00;99.90;;;;;;4995898;28;20034;-50
2023/01/18 08:59:37;;;;;;;21.98;15.32;;;-1.00;99.90;;;;;;4997753;28;20045;-49
2023/01/18 09:02:03;;;;;;;19.15;13.10;;;-1.00;99.90;;;;;;4995610;28;20046;-50
2023/01/18 09:04:29;;;;;;;19.98;14.35;;;-0.90;99.90;;;;;;4998530;28;20053;-50
2023/01/18 09:06:55;;;;;;;22.60;14.73;;;-0.90;99.90;;;;;;5008215;28;20148;-49
2023/01/18 09:09:21;;;;;;;18.50;13.85;;;-0.80;99.90;;;;;;5010302;28;20054;-49
2023/01/18 09:11:50;;;;;;;15.07;12.98;;;-0.70;99.90;;;;;;5010371;28;20049;-50
2023/01/18 09:14:16;;;;;;;15.07;12.23;;;-0.60;99.90;;;;;;5007496;28;20088;-50
2023/01/18 09:16:42;;;;;;;17.05;13.50;;;-0.50;99.90;;;;;;5011797;28;20042;-49
2023/01/18 09:19:07;;;;;;;17.02;12.73;;;-0.40;99.90;;;;;;5010111;28;20068;-49
2023/01/18 09:21:34;;;;;;;14.93;12.55;;;-0.40;99.90;;;;;;5008167;28;20045;-49
2023/01/18 09:23:59;;;;;;;15.18;12.50;;;-0.30;99.90;;;;;;5010003;28;20046;-49
2023/01/18 09:26:26;;;;;;;17.42;12.80;;;-0.20;99.90;;;;;;5025032;28;20487;-49
2023/01/18 09:28:52;;;;;;;16.20;12.52;;;-0.20;99.90;;;;;;5013226;28;20323;-50
2023/01/18 09:31:20;;;;;;;14.50;11.85;;;-0.10;99.90;;;;;;5004999;28;20045;-51
2023/01/18 09:33:46;;;;;;;14.38;11.50;;;0.00;99.90;;;;;;5001902;28;20404;-49
2023/01/18 09:36:13;;;;;;;15.18;10.88;;;0.10;99.90;;;;;;5006250;28;20126;-52
2023/01/18 09:38:40;;;;;;;15.10;11.23;;;0.30;99.90;;;;;;5010337;28;20073;-50
2023/01/18 09:41:18;;;;;;;14.15;10.57;;;0.50;99.90;;;;;;5009250;28;20441;-49
2023/01/18 09:43:49;;;;;;;12.55;10.48;;;0.60;99.90;;;;;;5010950;28;20464;-50
2023/01/18 09:46:22;;;;;;;16.77;10.88;;;0.80;99.90;;;;;;5009156;28;20061;-51
2023/01/18 09:48:53;;;;;;;15.25;10.35;;;0.80;99.90;;;;;;5007716;28;20122;-51
2023/01/18 09:51:22;;;;;;;11.00;9.65;;;0.90;99.90;;;;;;4988220;28;20125;-49
2023/01/18 09:54:25;;;;;;;12.57;9.55;;;1.00;99.90;;;;;;4996538;28;20412;-51
2023/01/18 09:57:05;;;;;;;12.52;10.02;;;1.10;99.90;;;;;;5007711;28;20500;-50
2023/01/18 09:59:38;;;;;;;14.75;10.15;;;1.20;99.90;;;;;;5011899;28;20144;-50
2023/01/18 10:02:22;;;;;;;10.32;9.15;;;1.30;99.90;;;;;;5011128;28;20046;-51
2023/01/18 10:04:53;;;;;;;13.30;9.30;;;1.30;99.90;;;;;;5008157;28;20050;-49
2023/01/18 10:07:21;;;;;;;14.15;9.60;;;1.30;99.90;;;;;;5009264;28;20358;-51
2023/01/18 10:09:52;;;;;;;13.35;9.90;;;1.30;99.90;;;;;;5006577;28;20056;-53
2023/01/18 10:12:44;;;;;;;13.30;9.63;;;1.30;99.90;;;;;;5001954;28;20054;-51
2023/01/18 10:15:21;;;;;;;10.85;8.98;;;1.30;99.90;;;;;;4999566;28;20097;-50
2023/01/18 10:17:49;;;;;;;12.95;9.32;;;1.30;99.90;;;;;;5005812;28;20077;-51
2023/01/18 10:20:48;;;;;;;12.05;9.13;;;1.30;99.90;;;;;;5011002;28;20551;-52
2023/01/18 10:23:32;;;;;;;14.18;9.40;;;1.30;99.90;;;;;;5003799;28;20501;-50
2023/01/18 10:26:15;;;;;;;12.23;9.13;;;1.30;99.90;;;;;;5009093;28;20042;-52
2023/01/18 10:29:02;;;;;;;14.55;10.07;;;1.30;99.90;;;;;;5010319;28;20552;-50
2023/01/18 10:31:59;;;;;;;12.07;9.98;;;1.40;99.90;;;;;;5012221;28;20046;-51
2023/01/18 10:34:33;;;;;;;14.80;10.38;;;1.50;99.90;;;;;;5005752;28;20179;-49
2023/01/18 10:37:16;;;;;;;16.38;10.30;;;1.60;99.90;;;;;;5005581;28;20121;-51
2023/01/18 10:39:56;;;;;;;16.52;10.02;;;1.60;99.90;;;;;;5005856;28;20038;-54
2023/01/18 10:42:38;;;;;;;13.55;10.00;;;1.70;99.90;;;;;;5016043;28;20038;-52
2023/01/18 10:45:23;;;;;;;13.60;9.60;;;1.80;99.90;;;;;;5019103;28;20147;-51
2023/01/18 10:47:51;;;;;;;14.18;9.98;;;1.80;99.90;;;;;;5017193;28;20060;-52
2023/01/18 10:50:31;;;;;;;12.98;9.38;;;1.90;99.90;;;;;;5015000;28;20120;-53
2023/01/18 10:52:57;;;;;;;13.00;9.48;;;1.90;99.90;;;;;;5006496;28;20057;-52
2023/01/18 10:55:23;;;;;;;13.82;9.00;;;1.90;99.90;;;;;;5012289;28;20104;-51
2023/01/18 10:57:53;;;;;;;13.95;9.25;;;2.00;99.90;;;;;;5014205;28;20145;-50
2023/01/18 11:00:25;;;;;;;11.73;8.73;;;2.10;99.90;;;;;;5007268;28;20103;-52
2023/01/18 11:02:53;;;;;;;12.70;8.77;;;2.10;99.90;;;;;;5013141;28;20050;-49
2023/01/18 11:05:28;;;;;;;10.57;8.30;;;2.20;99.90;;;;;;5010151;28;20484;-51
2023/01/18 11:08:20;;;;;;;11.65;8.52;;;2.20;99.90;;;;;;5008936;28;20041;-50
2023/01/18 11:10:56;;;;;;;10.88;8.13;;;2.30;99.90;;;;;;5023259;28;20045;-50
2023/01/18 11:13:28;;;;;;;13.15;8.50;;;2.40;99.90;;;;;;5008534;28;20042;-54
2023/01/18 11:16:21;;;;;;;9.75;7.97;;;2.50;99.90;;;;;;5005767;28;20558;-52
2023/01/18 11:18:58;;;;;;;15.13;8.57;;;2.50;99.90;;;;;;5010831;28;20050;-49
2023/01/18 11:21:30;;;;;;;12.50;8.40;;;2.50;99.90;;;;;;5000881;28;20117;-51
2023/01/18 11:23:56;;;;;;;11.70;8.38;;;2.50;99.90;;;;;;5008756;28;20040;-52
2023/01/18 11:26:22;;;;;;;10.77;7.45;;;2.60;99.90;;;;;;5009860;28;20460;-51
2023/01/18 11:28:57;;;;;;;13.15;8.32;;;2.60;99.90;;;;;;5005960;28;20176;-49
2023/01/18 11:31:25;;;;;;;11.65;8.88;;;2.70;99.90;;;;;;4997317;28;20373;-49
2023/01/18 11:33:52;;;;;;;9.35;8.38;;;2.70;99.90;;;;;;5005684;28;20050;-49
2023/01/18 11:36:30;;;;;;;14.27;8.25;;;2.80;99.90;;;;;;5010041;28;20042;-49
2023/01/18 11:39:36;;;;;;;9.95;7.65;;;2.80;99.90;;;;;;5009010;28;20078;-51
2023/01/18 11:42:31;;;;;;;9.90;7.20;;;2.90;99.90;;;;;;5007075;28;20061;-52
2023/01/18 11:45:11;;;;;;;11.30;7.50;;;2.90;99.90;;;;;;5001477;28;20061;-49
2023/01/18 11:47:52;;;;;;;13.25;8.55;;;3.00;99.90;;;;;;5006826;28;21002;-51
2023/01/18 11:50:33;;;;;;;9.82;7.72;;;3.10;99.90;;;;;;5005160;28;20060;-50
2023/01/18 11:53:17;;;;;;;10.95;8.02;;;3.10;99.90;;;;;;5009140;28;20053;-53
2023/01/18 11:55:55;;;;;;;8.88;7.40;;;3.10;99.90;;;;;;5007521;28;20044;-53
2023/01/18 11:58:27;;;;;;;9.20;6.97;;;3.20;99.90;;;;;;5008350;28;20042;-52
2023/01/18 12:01:26;;;;;;;10.40;8.23;;;3.30;99.90;;;;;;5005120;28;20054;-52
2023/01/18 12:04:10;;;;;;;8.60;6.80;;;3.30;99.90;;;;;;5003129;28;20096;-54
2023/01/18 12:07:02;;;;;;;10.50;7.18;;;3.40;99.90;;;;;;5001969;28;20504;-54
2023/01/18 12:09:49;;;;;;;8.88;7.18;;;3.40;99.90;;;;;;5002680;28;20093;-54
2023/01/18 12:12:31;;;;;;;10.60;6.93;;;3.50;99.90;;;;;;5004880;28;20555;-51
2023/01/18 12:15:30;;;;;;;9.00;6.90;;;3.50;99.90;;;;;;5004244;28;20062;-53
2023/01/18 12:18:41;;;;;;;11.70;7.30;;;3.60;99.90;;;;;;5004560;28;20124;-53
2023/01/18 12:21:12;;;;;;;8.57;7.25;;;3.60;99.90;;;;;;5003730;28;20056;-49
2023/01/18 12:23:54;;;;;;;9.82;7.70;;;3.70;99.90;;;;;;5002486;28;20104;-52
2023/01/18 12:26:26;;;;;;;11.43;6.75;;;3.70;99.90;;;;;;4993854;28;20120;-52
2023/01/18 12:29:06;;;;;;;10.27;6.75;;;3.80;99.90;;;;;;4994000;28;20046;-52
2023/01/18 12:31:58;;;;;;;9.50;6.47;;;3.80;99.90;;;;;;4994108;28;20097;-50
2023/01/18 12:35:02;;;;;;;8.10;6.60;;;3.90;99.90;;;;;;5000075;28;20114;-49
2023/01/18 12:37:46;;;;;;;10.02;5.90;;;3.90;99.90;;;;;;5011868;28;20045;-49
2023/01/18 12:40:39;;;;;;;10.40;6.28;;;3.90;99.90;;;;;;5013260;28;20045;-49
2023/01/18 12:43:29;;;;;;;11.45;6.47;;;4.00;99.90;;;;;;5012416;28;20095;-49
2023/01/18 12:46:10;;;;;;;7.10;5.60;;;4.00;99.90;;;;;;5005627;28;20137;-49
2023/01/18 12:49:01;;;;;;;8.57;5.60;;;4.00;99.90;;;;;;5013299;28;20501;-49
2023/01/18 12:51:32;;;;;;;9.48;5.90;;;4.00;99.90;;;;;;5013206;28;20054;-49
2023/01/18 12:54:15;;;;;;;8.35;6.10;;;4.10;99.90;;;;;;5012431;28;20119;-51
2023/01/18 12:56:44;;;;;;;8.77;5.70;;;4.10;99.90;;;;;;5012136;28;20334;-49
2023/01/18 12:59:18;;;;;;;7.15;5.90;;;4.10;99.90;;;;;;5012905;28;20511;-53
2023/01/18 13:01:50;;;;;;;10.07;6.45;;;4.10;99.90;;;;;;5010190;28;20045;-49
2023/01/18 13:04:34;;;;;;;9.50;6.85;;;4.10;99.90;;;;;;5012990;28;20042;-49
2023/01/18 13:07:06;;;;;;;11.77;6.60;;;4.10;99.90;;;;;;5012128;28;20140;-51
2023/01/18 13:09:37;;;;;;;8.48;5.57;;;4.10;99.90;;;;;;5013155;28;20085;-50
2023/01/18 13:12:04;;;;;;;8.27;6.65;;;4.10;99.90;;;;;;5011833;28;20104;-49
2023/01/18 13:14:51;;;;;;;8.05;6.10;;;4.10;99.90;;;;;;5010160;28;20046;-50
2023/01/18 13:17:19;;;;;;;6.90;6.15;;;4.10;99.90;;;;;;5011710;28;20057;-49
2023/01/18 13:19:53;;;;;;;10.90;6.28;;;4.10;99.90;;;;;;5012750;28;20046;-50
2023/01/18 13:22:52;;;;;;;9.30;6.15;;;4.10;99.90;;;;;;5012794;28;20161;-50
2023/01/18 13:25:42;;;;;;;8.68;6.22;;;4.10;99.90;;;;;;5013078;28;20045;-51
2023/01/18 13:28:22;;;;;;;10.95;5.63;;;4.10;99.90;;;;;;5005267;28;20356;-49